Time;durP1;ratioP1;P1;durP2;ratioP2;P2;SDS_P1;SDS_P2;PMS_P1;PMS_P2;Temp;Humidity;BMP_temperature;BMP_pressure;BME280_temperature;BME280_humidity;BME280_pressure;Samples;Min_cycle;Max_cycle;Signal;HPM_P1;HPM_P2
2023/08/25 00:01:53;;;;;;;;;27.25;24.75;;;;;26.28;39.01;99235.84;5092242;28;8837;-77
2023/08/25 00:04:23;;;;;;;;;22.00;22.00;;;;;26.25;38.26;99236.16;5093491;28;8842;-77
2023/08/25 00:06:52;;;;;;;;;23.80;23.40;;;;;26.20;38.40;99238.41;5092290;28;8850;-80
2023/08/25 00:09:21;;;;;;;;;26.25;26.00;;;;;26.17;38.99;99230.59;5040783;28;8861;-79
2023/08/25 00:11:50;;;;;;;;;26.00;26.00;;;;;26.16;39.29;99231.59;5092631;28;8838;-77
2023/08/25 00:14:18;;;;;;;;;29.00;29.00;;;;;26.18;39.37;99229.63;5092513;28;8984;-78
2023/08/25 00:16:48;;;;;;;;;25.00;25.00;;;;;26.16;38.15;99231.59;5092159;28;8846;-78
2023/08/25 00:19:17;;;;;;;;;22.80;22.00;;;;;26.13;37.56;99229.19;5091928;28;8864;-79
2023/08/25 00:21:47;;;;;;;;;27.20;26.60;;;;;26.14;38.03;99225.50;5078514;28;8826;-79
2023/08/25 00:24:16;;;;;;;;;32.75;30.00;;;;;26.16;40.86;99229.75;5080257;28;8941;-78
2023/08/25 00:26:45;;;;;;;;;32.25;29.75;;;;;26.17;40.82;99217.13;5094293;28;8833;-79
2023/08/25 00:29:14;;;;;;;;;28.75;27.50;;;;;26.20;41.26;99219.56;5081840;28;8824;-78
2023/08/25 00:31:44;;;;;;;;;35.00;31.50;;;;;26.15;41.59;99213.72;5112059;28;8855;-78
2023/08/25 00:34:12;;;;;;;;;32.00;29.25;;;;;26.14;41.25;99209.34;5112162;28;8919;-77
2023/08/25 00:36:41;;;;;;;;;35.75;32.00;;;;;26.09;40.89;99202.50;5111377;28;8836;-81
2023/08/25 00:39:12;;;;;;;;;32.50;29.50;;;;;26.07;41.16;99207.19;5043789;28;8940;-81
2023/08/25 00:41:42;;;;;;;;;24.75;24.75;;;;;26.04;39.48;99203.94;5043214;28;8839;-77
2023/08/25 00:44:10;;;;;;;;;29.25;29.00;;;;;26.00;40.49;99203.38;5089904;28;8842;-77
2023/08/25 00:46:40;;;;;;;;;23.40;23.40;;;;;25.96;38.99;99193.84;5073790;28;8838;-79
2023/08/25 00:49:09;;;;;;;;;25.00;24.20;;;;;25.90;39.06;99197.97;5090212;28;8858;-76
2023/08/25 00:51:38;;;;;;;;;26.25;25.75;;;;;25.24;40.94;99195.72;5091740;28;8838;-78
2023/08/25 00:54:08;;;;;;;;;26.00;24.50;;;;;25.21;42.19;99196.00;5091574;28;8853;-80
2023/08/25 00:56:39;;;;;;;;;30.75;30.00;;;;;25.04;42.36;99196.63;5091319;28;8872;-78
2023/08/25 00:59:08;;;;;;;;;31.00;28.75;;;;;24.81;43.55;99196.81;5056843;28;8970;-79
2023/08/25 01:01:37;;;;;;;;;33.00;30.75;;;;;24.60;44.56;99190.53;5090424;28;8857;-78
2023/08/25 01:04:06;;;;;;;;;26.00;24.00;;;;;24.19;45.17;99189.50;5091179;28;8842;-78
2023/08/25 01:06:37;;;;;;;;;31.75;30.00;;;;;23.88;45.97;99192.88;5091389;28;8838;-77
2023/08/25 01:09:07;;;;;;;;;29.25;28.75;;;;;23.73;44.88;99195.03;5089833;28;8864;-79
2023/08/25 01:11:45;;;;;;;;;30.00;29.75;;;;;23.62;45.33;99194.16;5090297;28;8894;-80
2023/08/25 01:14:22;;;;;;;;;27.00;25.00;;;;;23.70;44.65;99189.03;5072939;28;8913;-77
2023/08/25 01:16:57;;;;;;;;;26.50;25.50;;;;;23.79;44.54;99196.34;5090876;28;8846;-80
2023/08/25 01:19:44;;;;;;;;;25.25;24.75;;;;;24.13;44.08;99196.25;5081109;28;8874;-77
2023/08/25 01:22:18;;;;;;;;;28.75;26.75;;;;;24.20;43.31;99201.97;5096044;28;8886;-78
2023/08/25 01:24:49;;;;;;;;;32.75;29.50;;;;;24.38;43.64;99207.63;5091097;28;8940;-79
2023/08/25 01:27:21;;;;;;;;;26.60;26.00;;;;;24.48;43.44;99206.72;5090825;28;8936;-77
2023/08/25 01:29:50;;;;;;;;;26.75;24.75;;;;;24.52;43.20;99210.00;5092662;28;8858;-80
2023/08/25 01:32:19;;;;;;;;;31.25;29.75;;;;;24.52;42.78;99208.16;5092922;28;8971;-79
2023/08/25 01:34:48;;;;;;;;;27.50;27.50;;;;;24.58;43.32;99216.69;5111090;28;9509;-79
2023/08/25 01:37:24;;;;;;;;;32.75;28.50;;;;;24.60;43.72;99215.56;5110959;28;8847;-78
2023/08/25 01:40:04;;;;;;;;;27.00;26.50;;;;;24.72;44.14;99217.22;5081180;28;8857;-78
2023/08/25 01:42:37;;;;;;;;;33.00;31.50;;;;;24.80;44.09;99216.59;5057012;28;8857;-78
2023/08/25 01:45:09;;;;;;;;;31.00;28.50;;;;;24.84;44.21;99218.03;5072684;28;8930;-77
2023/08/25 01:47:41;;;;;;;;;28.50;28.00;;;;;24.91;44.05;99219.22;5089181;28;8943;-78
2023/08/25 01:50:11;;;;;;;;;30.75;30.25;;;;;24.93;44.06;99219.94;5088937;28;8849;-79
2023/08/25 01:52:40;;;;;;;;;30.00;29.20;;;;;24.95;43.69;99232.41;5055900;28;9634;-80
2023/08/25 01:55:09;;;;;;;;;29.50;28.50;;;;;24.97;44.30;99239.34;5073413;28;8834;-79
2023/08/25 01:57:39;;;;;;;;;29.00;29.00;;;;;25.00;44.18;99235.53;5090331;28;8842;-79
2023/08/25 02:00:09;;;;;;;;;30.25;29.25;;;;;24.99;44.50;99236.53;5089114;28;8842;-77
2023/08/25 02:02:44;;;;;;;;;34.75;32.50;;;;;25.00;44.69;99246.28;5057119;28;8896;-81
2023/08/25 02:05:13;;;;;;;;;32.67;30.00;;;;;25.00;44.76;99243.59;5090054;28;8862;-78
2023/08/25 02:07:42;;;;;;;;;32.25;31.00;;;;;24.99;44.78;99242.75;5072242;28;8849;-78
2023/08/25 02:10:14;;;;;;;;;33.50;31.25;;;;;24.97;43.90;99249.25;5090193;28;8920;-79
2023/08/25 02:12:44;;;;;;;;;30.50;30.00;;;;;24.92;43.84;99253.19;5090325;28;8930;-77
2023/08/25 02:15:13;;;;;;;;;30.50;30.00;;;;;24.88;43.65;99251.72;5098120;28;8916;-77
2023/08/25 02:17:42;;;;;;;;;27.25;26.00;;;;;24.78;43.59;99252.66;5099778;28;8848;-77
2023/08/25 02:20:12;;;;;;;;;29.50;29.25;;;;;24.80;44.30;99258.75;5093307;28;8855;-78
2023/08/25 02:22:41;;;;;;;;;28.25;27.50;;;;;24.83;44.11;99256.66;5092249;28;9016;-78
2023/08/25 02:25:10;;;;;;;;;29.50;29.50;;;;;24.83;43.50;99259.34;5091995;28;9589;-78
2023/08/25 02:27:41;;;;;;;;;23.20;23.00;;;;;24.82;43.65;99263.00;5092033;28;8848;-80
2023/08/25 02:30:12;;;;;;;;;28.00;27.25;;;;;24.81;43.29;99261.31;5075056;28;8866;-79
2023/08/25 02:32:41;;;;;;;;;32.00;30.75;;;;;24.78;43.46;99256.19;5109955;28;8832;-77
2023/08/25 02:35:10;;;;;;;;;27.25;25.50;;;;;24.75;44.25;99259.13;5041427;28;8860;-80
2023/08/25 02:37:57;;;;;;;;;29.25;28.00;;;;;24.90;43.60;99252.44;5109868;28;8882;-77
2023/08/25 02:40:26;;;;;;;;;30.25;29.75;;;;;24.77;44.22;99257.16;5109790;28;8847;-78
2023/08/25 02:42:56;;;;;;;;;26.40;26.20;;;;;24.78;43.79;99266.09;5109891;28;8832;-78
2023/08/25 02:45:26;;;;;;;;;29.50;28.50;;;;;24.82;44.74;99275.63;5109937;28;8942;-81
2023/08/25 02:47:56;;;;;;;;;31.50;29.25;;;;;24.79;44.48;99265.09;5091585;28;8831;-77
2023/08/25 02:50:25;;;;;;;;;32.50;30.75;;;;;24.72;44.67;99270.97;5091469;28;8970;-80
2023/08/25 02:52:56;;;;;;;;;33.25;30.25;;;;;24.69;45.34;99270.38;5037242;28;8849;-77
2023/08/25 02:55:25;;;;;;;;;33.25;31.75;;;;;24.66;44.86;99279.56;5088303;28;8857;-77
2023/08/25 02:57:54;;;;;;;;;32.50;31.25;;;;;24.63;44.75;99273.59;5089655;28;8918;-81
2023/08/25 03:00:24;;;;;;;;;36.00;32.00;;;;;24.65;44.21;99279.69;5090879;28;8834;-78
2023/08/25 03:02:56;;;;;;;;;28.25;28.25;;;;;24.62;43.64;99275.44;5043847;28;9592;-79
2023/08/25 03:05:25;;;;;;;;;27.60;26.40;;;;;24.60;43.97;99274.69;5091832;28;8990;-79
2023/08/25 03:07:55;;;;;;;;;29.00;28.00;;;;;24.61;44.03;99267.50;5109549;28;8851;-80
2023/08/25 03:10:25;;;;;;;;;23.80;23.60;;;;;24.61;43.43;99267.50;5092348;28;8924;-80
2023/08/25 03:12:55;;;;;;;;;27.40;24.40;;;;;24.60;42.79;99250.50;5060949;28;8936;-78
2023/08/25 03:15:24;;;;;;;;;25.00;24.00;;;;;24.60;43.08;99255.88;5093057;28;8878;-78
2023/08/25 03:17:53;;;;;;;;;30.00;28.60;;;;;24.58;42.89;99251.63;5091549;28;8848;-76
2023/08/25 03:20:23;;;;;;;;;28.00;28.00;;;;;24.55;43.04;99250.91;5109769;28;8890;-77
2023/08/25 03:22:54;;;;;;;;;37.25;33.00;;;;;24.54;43.51;99249.19;5074855;28;8884;-79
2023/08/25 03:25:23;;;;;;;;;35.75;32.25;;;;;24.61;43.43;99252.22;5071355;28;8858;-80
2023/08/25 03:27:51;;;;;;;;;29.50;28.25;;;;;24.58;43.59;99246.25;5071013;28;8825;-79
2023/08/25 03:30:21;;;;;;;;;28.50;28.50;;;;;24.55;44.03;99252.75;5071516;28;8842;-76
2023/08/25 03:32:50;;;;;;;;;31.50;30.00;;;;;24.52;43.62;99248.47;5070406;28;8881;-79
2023/08/25 03:35:18;;;;;;;;;32.25;30.00;;;;;24.48;43.55;99248.88;5070903;28;8869;-78
2023/08/25 03:37:50;;;;;;;;;34.75;31.25;;;;;24.48;43.45;99241.66;5074193;28;8852;-79
2023/08/25 03:40:20;;;;;;;;;37.00;32.50;;;;;24.53;44.15;99235.91;5087988;28;8848;-80
2023/08/25 03:42:49;;;;;;;;;34.75;30.00;;;;;24.53;43.56;99225.16;5089001;28;9601;-77
2023/08/25 03:45:17;;;;;;;;;33.50;31.50;;;;;24.49;43.59;99226.38;5089450;28;9039;-79
2023/08/25 03:47:46;;;;;;;;;35.25;31.75;;;;;24.41;44.34;99227.03;5087676;28;8840;-77
2023/08/25 03:50:15;;;;;;;;;23.50;23.00;;;;;24.47;43.79;99222.97;5087928;28;8855;-77
2023/08/25 03:52:46;;;;;;;;;35.50;32.25;;;;;24.43;44.95;99217.00;5088445;28;8872;-80
2023/08/25 03:55:16;;;;;;;;;40.75;35.25;;;;;24.39;45.06;99210.19;5088920;28;8842;-80
2023/08/25 03:57:45;;;;;;;;;39.75;32.75;;;;;24.35;45.42;99208.75;5087583;28;8846;-79
2023/08/25 04:00:15;;;;;;;;;30.00;28.50;;;;;24.23;45.92;99207.94;5088533;28;8841;-79
2023/08/25 04:02:44;;;;;;;;;35.25;32.50;;;;;24.23;46.17;99209.78;5088621;28;8822;-81
2023/08/25 04:05:12;;;;;;;;;35.75;31.50;;;;;24.28;46.26;99212.91;5070289;28;8857;-78
2023/08/25 04:07:41;;;;;;;;;33.25;31.25;;;;;24.26;46.04;99201.44;5090725;28;8853;-79
2023/08/25 04:10:10;;;;;;;;;26.75;26.50;;;;;24.27;46.02;99209.38;5024159;28;8842;-79
2023/08/25 04:12:40;;;;;;;;;35.50;32.75;;;;;24.30;46.34;99210.94;5075715;28;8842;-80
2023/08/25 04:15:10;;;;;;;;;35.00;31.50;;;;;24.40;46.38;99219.97;5041025;28;8873;-79
2023/08/25 04:17:39;;;;;;;;;32.00;30.75;;;;;24.44;46.13;99218.72;5037569;28;8877;-80
2023/08/25 04:20:09;;;;;;;;;27.25;26.25;;;;;24.50;46.19;99220.88;5035735;28;8941;-80
2023/08/25 04:22:38;;;;;;;;;34.50;31.75;;;;;24.54;45.68;99222.31;5052519;28;8852;-80
2023/08/25 04:25:07;;;;;;;;;33.75;31.75;;;;;24.57;45.89;99225.75;5052270;28;8882;-78
2023/08/25 04:27:37;;;;;;;;;35.00;32.00;;;;;24.61;46.12;99232.56;5069459;28;8878;-76
2023/08/25 04:30:09;;;;;;;;;37.50;32.00;;;;;24.71;45.79;99230.78;5052455;28;8844;-78
2023/08/25 04:32:39;;;;;;;;;40.25;32.75;;;;;24.75;45.78;99229.56;5052561;28;8843;-80
2023/08/25 04:35:09;;;;;;;;;40.25;35.00;;;;;24.81;45.65;99223.69;5003433;28;8848;-80
2023/08/25 04:37:40;;;;;;;;;43.75;36.00;;;;;24.86;45.51;99228.66;5036162;28;8987;-78
2023/08/25 04:40:09;;;;;;;;;37.50;33.50;;;;;24.89;45.60;99228.41;5035319;28;8852;-77
2023/08/25 04:42:38;;;;;;;;;33.50;32.00;;;;;24.94;45.42;99228.84;5043906;28;9642;-78
2023/08/25 04:45:11;;;;;;;;;35.50;32.00;;;;;25.02;44.76;99229.06;5031341;28;8997;-79
2023/08/25 04:47:40;;;;;;;;;37.50;33.25;;;;;25.04;45.00;99232.44;5000068;28;8847;-81
2023/08/25 04:50:09;;;;;;;;;34.00;31.75;;;;;25.02;44.25;99231.75;5031335;28;8948;-80
2023/08/25 04:52:40;;;;;;;;;39.00;33.00;;;;;25.05;43.97;99228.75;5031707;28;8842;-79
2023/08/25 04:55:10;;;;;;;;;30.00;30.00;;;;;25.17;44.33;99229.56;5030646;28;8968;-79
2023/08/25 04:57:41;;;;;;;;;34.75;31.50;;;;;25.29;44.01;99233.00;5045730;28;8939;-79
2023/08/25 05:00:12;;;;;;;;;36.50;33.00;;;;;25.47;44.16;99235.94;5069321;28;8889;-78
2023/08/25 05:02:41;;;;;;;;;51.50;41.25;;;;;25.37;43.73;99237.75;5070513;28;8888;-78
2023/08/25 05:05:11;;;;;;;;;38.75;34.00;;;;;25.34;44.98;99229.94;5074237;28;8842;-78
2023/08/25 05:07:42;;;;;;;;;38.75;32.50;;;;;25.40;44.41;99238.31;5075056;28;8873;-79
2023/08/25 05:10:11;;;;;;;;;35.25;32.50;;;;;25.34;44.45;99240.69;5072445;28;9116;-80
2023/08/25 05:12:43;;;;;;;;;34.25;31.75;;;;;25.40;45.03;99241.00;5087814;28;8872;-81
2023/08/25 05:15:13;;;;;;;;;40.75;32.25;;;;;25.53;44.37;99238.09;5070412;28;8931;-78
2023/08/25 05:17:42;;;;;;;;;34.25;32.25;;;;;25.63;44.10;99240.81;5068972;28;8851;-81
2023/08/25 05:20:12;;;;;;;;;36.25;32.50;;;;;25.73;44.48;99247.06;5052559;28;9572;-77
2023/08/25 05:22:41;;;;;;;;;36.00;32.00;;;;;25.85;43.58;99245.09;5018360;28;8877;-79
2023/08/25 05:25:12;;;;;;;;;34.75;32.50;;;;;25.94;42.97;99255.09;5081708;28;8971;-79
2023/08/25 05:27:42;;;;;;;;;31.75;30.00;;;;;26.01;42.58;99256.25;5068697;28;8850;-80
2023/08/25 05:30:15;;;;;;;;;32.75;30.00;;;;;25.89;42.58;99254.63;5035440;28;9681;-77
2023/08/25 05:32:47;;;;;;;;;31.25;29.75;;;;;25.73;42.75;99263.22;5052799;28;8835;-81
2023/08/25 05:35:32;;;;;;;;;30.75;30.00;;;;;25.76;42.78;99270.19;5068735;28;8865;-79
2023/08/25 05:38:01;;;;;;;;;31.00;30.25;;;;;25.79;42.48;99278.81;5068652;28;9577;-79
2023/08/25 05:40:32;;;;;;;;;32.25;30.00;;;;;25.98;42.31;99269.97;5069633;28;9615;-79
2023/08/25 05:43:02;;;;;;;;;29.00;26.75;;;;;26.03;41.52;99273.13;5070297;28;8838;-81
2023/08/25 05:45:32;;;;;;;;;32.00;30.75;;;;;26.16;41.33;99283.63;5069427;28;8992;-79
2023/08/25 05:48:03;;;;;;;;;30.00;29.50;;;;;26.22;40.42;99274.16;5068794;28;8858;-80
2023/08/25 05:50:32;;;;;;;;;34.33;31.67;;;;;26.35;40.42;99277.41;5068323;28;8842;-81
2023/08/25 05:53:02;;;;;;;;;34.00;29.75;;;;;26.39;39.46;99280.69;5035367;28;8834;-79
2023/08/25 05:55:32;;;;;;;;;31.75;29.25;;;;;26.32;39.03;99284.94;5068064;28;8858;-78
2023/08/25 05:58:01;;;;;;;;;31.00;29.00;;;;;26.41;38.94;99284.09;5070212;28;8888;-78
2023/08/25 06:00:29;;;;;;;;;29.75;28.50;;;;;26.53;38.98;99279.44;5073154;28;8846;-78
2023/08/25 06:03:02;;;;;;;;;36.50;32.50;;;;;26.65;39.12;99281.84;5072480;28;9569;-79
2023/08/25 06:05:30;;;;;;;;;33.00;31.00;;;;;26.75;39.11;99276.44;5070253;28;8870;-77
2023/08/25 06:07:59;;;;;;;;;29.25;28.25;;;;;26.96;38.85;99272.75;5069260;28;8865;-82
2023/08/25 06:10:29;;;;;;;;;26.00;25.00;;;;;26.80;38.07;99279.56;5069682;28;8866;-80
2023/08/25 06:12:58;;;;;;;;;26.67;26.67;;;;;27.08;38.23;99279.72;5068106;28;8874;-82
2023/08/25 06:15:27;;;;;;;;;31.25;28.75;;;;;27.30;37.69;99272.25;5069058;28;8866;-79
2023/08/25 06:17:56;;;;;;;;;29.00;28.50;;;;;27.32;37.57;99279.19;5077969;28;8911;-79
2023/08/25 06:20:26;;;;;;;;;27.75;27.00;;;;;27.31;37.08;99287.44;5053666;28;8834;-78
2023/08/25 06:22:55;;;;;;;;;30.00;28.75;;;;;27.35;37.20;99286.19;5071103;28;8821;-78
2023/08/25 06:25:24;;;;;;;;;28.25;27.25;;;;;27.43;37.28;99289.81;5053682;28;8846;-79
2023/08/25 06:27:53;;;;;;;;;31.25;29.50;;;;;27.41;37.45;99285.59;5089097;28;8854;-78
2023/08/25 06:30:22;;;;;;;;;28.00;26.25;;;;;27.55;37.25;99281.53;5091144;28;8873;-76
2023/08/25 06:32:53;;;;;;;;;24.75;24.50;;;;;27.79;36.89;99289.16;5088808;28;8857;-76
2023/08/25 06:35:22;;;;;;;;;30.75;29.00;;;;;27.96;36.68;99293.75;5089225;28;8869;-78
2023/08/25 06:37:52;;;;;;;;;29.25;28.50;;;;;27.99;36.48;99290.75;5037729;28;8862;-77
2023/08/25 06:40:21;;;;;;;;;30.75;27.50;;;;;27.87;36.09;99302.75;5088897;28;8883;-77
2023/08/25 06:42:51;;;;;;;;;26.50;25.50;;;;;27.91;36.39;99301.47;5071278;28;8865;-80
2023/08/25 06:45:21;;;;;;;;;26.00;25.00;;;;;28.09;36.29;99306.06;5088735;28;8846;-80
2023/08/25 06:47:50;;;;;;;;;23.40;23.40;;;;;28.32;36.01;99301.94;5088740;28;8826;-78
2023/08/25 06:50:20;;;;;;;;;27.25;24.50;;;;;28.01;35.96;99293.31;5088466;28;8926;-78
2023/08/25 06:52:49;;;;;;;;;30.25;29.00;;;;;27.83;37.09;99302.19;5091030;28;8942;-77
2023/08/25 06:55:20;;;;;;;;;28.00;26.75;;;;;27.68;37.35;99310.94;5090196;28;8996;-78
2023/08/25 06:57:49;;;;;;;;;27.25;27.25;;;;;27.33;38.20;99313.31;5073244;28;8845;-77
2023/08/25 07:00:19;;;;;;;;;28.00;28.00;;;;;27.01;39.28;99314.47;5090418;28;8861;-79
2023/08/25 07:02:48;;;;;;;;;25.75;25.75;;;;;27.28;38.48;99310.19;5054418;28;8834;-80
2023/08/25 07:05:18;;;;;;;;;27.75;27.25;;;;;27.64;37.44;99313.09;5089243;28;8853;-82
2023/08/25 07:07:47;;;;;;;;;29.25;27.75;;;;;27.64;37.83;99315.78;5070802;28;8818;-79
2023/08/25 07:10:16;;;;;;;;;25.25;24.75;;;;;28.02;36.88;99312.06;5088861;28;8846;-76
2023/08/25 07:12:46;;;;;;;;;31.00;29.00;;;;;28.45;36.12;99314.25;5070399;28;8838;-78
2023/08/25 07:15:15;;;;;;;;;25.75;24.50;;;;;28.78;36.68;99310.00;5088385;28;8845;-78
2023/08/25 07:17:44;;;;;;;;;28.25;27.75;;;;;29.08;35.64;99306.00;5088694;28;8864;-79
2023/08/25 07:20:13;;;;;;;;;29.75;28.75;;;;;29.32;35.54;99316.19;5090672;28;8854;-78
2023/08/25 07:22:42;;;;;;;;;30.25;29.50;;;;;29.60;35.30;99309.78;5089332;28;8830;-79
2023/08/25 07:25:10;;;;;;;;;34.75;31.00;;;;;29.86;35.45;99320.56;5088562;28;8874;-79
2023/08/25 07:27:40;;;;;;;;;38.00;31.50;;;;;30.09;34.44;99323.56;5088583;28;8860;-77
2023/08/25 07:30:10;;;;;;;;;28.00;27.75;;;;;30.27;34.37;99320.75;5088620;28;8841;-77
2023/08/25 07:32:39;;;;;;;;;31.75;30.75;;;;;30.34;33.95;99325.34;5088196;28;8869;-80
2023/08/25 07:35:09;;;;;;;;;35.25;32.00;;;;;30.51;33.85;99328.09;5087949;28;9698;-77
2023/08/25 07:37:41;;;;;;;;;34.00;31.00;;;;;30.62;33.59;99319.63;5088470;28;8861;-78
2023/08/25 07:40:10;;;;;;;;;34.25;31.00;;;;;30.77;33.72;99325.28;5088343;28;8837;-82
2023/08/25 07:42:39;;;;;;;;;32.50;30.50;;;;;30.87;33.31;99330.53;5053040;28;9580;-78
2023/08/25 07:45:10;;;;;;;;;31.00;29.75;;;;;30.98;33.32;99319.34;5090205;28;8872;-78
2023/08/25 07:47:39;;;;;;;;;31.25;29.50;;;;;31.10;31.86;99319.81;5092509;28;8833;-77
2023/08/25 07:50:08;;;;;;;;;28.00;27.25;;;;;31.14;31.68;99323.06;5040170;28;8962;-79
2023/08/25 07:52:37;;;;;;;;;27.75;27.75;;;;;30.91;31.18;99316.44;5094022;28;8874;-80
2023/08/25 07:55:07;;;;;;;;;39.25;34.00;;;;;30.93;32.04;99316.28;5041566;28;8933;-78
2023/08/25 07:57:36;;;;;;;;;31.00;30.00;;;;;31.05;31.05;99311.34;5092911;28;8950;-80
2023/08/25 08:00:09;;;;;;;;;29.00;28.50;;;;;31.19;31.37;99318.00;5091301;28;8834;-79
2023/08/25 08:02:40;;;;;;;;;31.75;30.25;;;;;31.28;31.35;99304.22;5026022;28;9611;-78
2023/08/25 08:05:10;;;;;;;;;31.50;28.75;;;;;31.33;31.16;99305.56;5091974;28;8842;-77
2023/08/25 08:07:39;;;;;;;;;31.75;29.50;;;;;31.36;31.85;99305.22;5092041;28;8988;-78
2023/08/25 08:10:09;;;;;;;;;35.00;31.50;;;;;31.41;31.42;99300.09;5091425;28;8979;-78
2023/08/25 08:12:41;;;;;;;;;32.50;31.00;;;;;31.44;31.35;99294.34;5091865;28;9042;-77
2023/08/25 08:15:12;;;;;;;;;33.00;30.25;;;;;31.39;31.99;99286.72;5092073;28;8888;-78
2023/08/25 08:17:42;;;;;;;;;35.50;32.25;;;;;31.41;32.57;99287.41;5040435;28;9061;-77
2023/08/25 08:20:13;;;;;;;;;34.00;31.00;;;;;31.48;32.17;99293.81;5091887;28;8872;-78
2023/08/25 08:22:43;;;;;;;;;30.00;29.00;;;;;31.58;31.04;99296.34;5091971;28;8854;-80
2023/08/25 08:25:14;;;;;;;;;28.75;28.75;;;;;31.66;29.97;99300.94;5091594;28;8962;-81
2023/08/25 08:27:44;;;;;;;;;31.75;28.75;;;;;31.71;30.24;99297.69;5091367;28;8865;-80
2023/08/25 08:30:16;;;;;;;;;24.50;24.00;;;;;31.73;29.88;99301.94;5039965;28;8861;-78
2023/08/25 08:32:48;;;;;;;;;25.00;25.00;;;;;31.81;29.89;99303.78;5091759;28;8837;-76
2023/08/25 08:35:17;;;;;;;;;24.75;24.75;;;;;31.81;29.38;99298.34;5091248;28;8838;-79
2023/08/25 08:37:46;;;;;;;;;26.75;26.00;;;;;31.88;29.76;99289.28;5055662;28;8862;-80
2023/08/25 08:40:16;;;;;;;;;27.25;26.75;;;;;31.93;29.93;99299.63;5039513;28;8969;-79
2023/08/25 08:42:46;;;;;;;;;27.75;27.75;;;;;31.85;30.13;99303.22;5091458;28;8838;-79
2023/08/25 08:45:17;;;;;;;;;26.50;26.00;;;;;31.65;29.37;99289.19;5090812;28;8864;-81
2023/08/25 08:47:49;;;;;;;;;26.00;26.00;;;;;31.85;29.45;99281.47;5091242;28;8834;-79
2023/08/25 08:50:19;;;;;;;;;26.50;25.50;;;;;31.89;28.87;99298.28;5092123;28;9627;-77
2023/08/25 08:52:49;;;;;;;;;25.00;24.25;;;;;31.93;28.91;99285.19;5091918;28;9003;-78
2023/08/25 08:55:20;;;;;;;;;25.00;25.00;;;;;31.84;29.19;99268.91;5092161;28;8850;-77
2023/08/25 08:57:51;;;;;;;;;23.50;23.00;;;;;31.97;29.14;99262.88;5090274;28;8934;-80
2023/08/25 09:00:21;;;;;;;;;27.50;26.25;;;;;31.94;29.33;99276.00;5091242;28;8822;-79
2023/08/25 09:02:53;;;;;;;;;27.25;27.25;;;;;31.92;29.10;99265.31;5090990;28;8833;-78
2023/08/25 09:05:26;;;;;;;;;25.75;25.75;;;;;32.03;28.98;99262.19;5090898;28;8841;-78
2023/08/25 09:08:00;;;;;;;;;22.25;22.25;;;;;32.05;27.80;99259.28;5073284;28;8833;-78
2023/08/25 09:10:30;;;;;;;;;20.50;20.50;;;;;31.93;28.32;99263.44;5092586;28;8981;-79
2023/08/25 09:12:59;;;;;;;;;21.00;20.00;;;;;31.99;28.63;99263.56;5090737;28;8858;-79
2023/08/25 09:15:30;;;;;;;;;23.25;21.75;;;;;32.06;28.50;99261.81;5090442;28;8884;-79
2023/08/25 09:18:05;;;;;;;;;23.50;23.00;;;;;32.16;28.02;99256.19;5089171;28;8892;-80
2023/08/25 09:20:38;;;;;;;;;23.25;23.25;;;;;31.89;28.51;99265.66;5090263;28;8903;-81
2023/08/25 09:23:08;;;;;;;;;25.25;23.75;;;;;31.91;27.73;99263.63;5090648;28;8858;-78
2023/08/25 09:25:40;;;;;;;;;25.75;25.00;;;;;32.07;27.66;99263.53;5090069;28;8837;-77
2023/08/25 09:28:10;;;;;;;;;24.50;24.25;;;;;32.03;28.38;99267.63;5072616;28;8850;-80
2023/08/25 09:30:40;;;;;;;;;23.50;23.50;;;;;32.12;28.07;99260.25;5090206;28;8904;-77
2023/08/25 09:33:11;;;;;;;;;23.25;22.25;;;;;32.28;28.04;99258.50;5090047;28;8978;-77
2023/08/25 09:35:41;;;;;;;;;25.50;24.50;;;;;32.16;28.12;99258.91;5090024;28;8856;-77
2023/08/25 09:38:21;;;;;;;;;25.50;25.50;;;;;32.19;28.02;99252.28;5090409;28;8854;-78
2023/08/25 09:40:50;;;;;;;;;19.75;19.75;;;;;32.29;28.23;99252.03;5090852;28;8841;-76
2023/08/25 09:43:29;;;;;;;;;21.25;21.25;;;;;32.35;28.03;99256.75;5055106;28;8837;-78
2023/08/25 09:45:58;;;;;;;;;22.75;21.75;;;;;32.24;27.66;99248.00;5091417;28;8861;-79
2023/08/25 09:48:33;;;;;;;;;23.75;22.75;;;;;32.34;27.80;99244.19;5091636;28;8830;-77
2023/08/25 09:51:03;;;;;;;;;19.25;18.00;;;;;32.28;27.66;99243.03;5090176;28;8884;-78
2023/08/25 09:53:34;;;;;;;;;21.25;20.75;;;;;32.34;27.31;99239.59;5089998;28;9611;-79
2023/08/25 09:56:05;;;;;;;;;22.50;21.25;;;;;32.17;27.76;99233.41;5089844;28;8877;-81
2023/08/25 09:58:35;;;;;;;;;22.50;22.50;;;;;32.27;27.49;99238.59;5054353;28;8854;-77
2023/08/25 10:01:06;;;;;;;;;20.75;20.75;;;;;32.43;27.48;99229.47;5071082;28;9804;-77
2023/08/25 10:03:37;;;;;;;;;23.75;22.75;;;;;32.51;27.45;99240.31;5089374;28;8837;-76
2023/08/25 10:06:08;;;;;;;;;23.75;23.00;;;;;32.52;26.92;99232.97;5089697;28;8850;-79
2023/08/25 10:08:37;;;;;;;;;22.00;22.00;;;;;32.39;26.58;99230.88;5088271;28;8853;-77
2023/08/25 10:11:07;;;;;;;;;22.00;20.75;;;;;32.40;27.05;99235.28;5089321;28;8833;-80
2023/08/25 10:13:38;;;;;;;;;24.50;21.00;;;;;32.49;28.17;99231.47;5088971;28;8864;-79
2023/08/25 10:16:12;;;;;;;;;24.25;23.00;;;;;32.56;27.63;99231.56;5089263;28;8887;-78
2023/08/25 10:18:45;;;;;;;;;23.75;21.75;;;;;32.53;27.58;99230.09;5088708;28;8980;-78
2023/08/25 10:21:19;;;;;;;;;22.75;22.50;;;;;32.56;27.00;99226.97;5089028;28;8942;-78
2023/08/25 10:23:51;;;;;;;;;22.25;21.50;;;;;32.73;27.01;99227.72;5089150;28;8881;-81
2023/08/25 10:26:21;;;;;;;;;22.00;21.00;;;;;32.71;26.49;99221.59;5089318;28;8833;-77
2023/08/25 10:28:51;;;;;;;;;23.00;21.25;;;;;32.72;26.68;99223.31;5089351;28;8938;-79
2023/08/25 10:31:20;;;;;;;;;22.00;21.25;;;;;32.71;26.43;99223.50;5089036;28;8857;-78
2023/08/25 10:33:52;;;;;;;;;21.75;20.75;;;;;32.70;26.73;99225.38;5088705;28;8864;-77
2023/08/25 10:36:23;;;;;;;;;21.25;21.25;;;;;32.80;26.62;99223.22;5071259;28;8930;-81
2023/08/25 10:39:10;;;;;;;;;22.50;22.50;;;;;33.00;26.13;99220.00;5088819;28;8850;-77
2023/08/25 10:41:43;;;;;;;;;22.00;22.00;;;;;33.02;26.21;99217.91;5089376;28;8853;-79
2023/08/25 10:44:21;;;;;;;;;22.00;20.00;;;;;33.05;26.12;99214.81;5090682;28;8951;-82
2023/08/25 10:46:51;;;;;;;;;23.25;22.25;;;;;32.79;25.76;99209.78;5071122;28;8944;-77
2023/08/25 10:49:21;;;;;;;;;27.25;22.75;;;;;32.46;26.68;99212.78;5088723;28;8834;-78
2023/08/25 10:51:50;;;;;;;;;19.00;18.50;;;;;32.74;26.72;99210.34;5089130;28;8978;-77
2023/08/25 10:54:19;;;;;;;;;22.00;22.00;;;;;32.86;26.63;99218.06;5088452;28;8966;-79
2023/08/25 10:56:52;;;;;;;;;20.00;19.00;;;;;32.94;26.29;99216.13;5088934;28;10001;-78
2023/08/25 10:59:22;;;;;;;;;24.00;23.00;;;;;32.99;26.57;99207.38;5088818;28;8857;-78
2023/08/25 11:01:57;;;;;;;;;21.50;21.25;;;;;33.14;26.14;99202.81;5088626;28;8838;-78
2023/08/25 11:04:29;;;;;;;;;21.75;21.25;;;;;33.22;25.51;99200.03;5088672;28;8856;-79
2023/08/25 11:07:00;;;;;;;;;22.25;22.00;;;;;33.21;25.70;99200.22;5070633;28;9769;-77
2023/08/25 11:09:35;;;;;;;;;23.75;21.00;;;;;33.26;25.92;99208.63;5088926;28;8838;-77
2023/08/25 11:12:07;;;;;;;;;20.75;20.75;;;;;33.15;26.33;99201.81;5088932;28;8854;-79
2023/08/25 11:14:37;;;;;;;;;19.75;19.75;;;;;33.28;26.37;99195.69;5088454;28;8846;-77
2023/08/25 11:17:07;;;;;;;;;21.00;21.00;;;;;33.48;26.24;99206.00;5070170;28;8842;-78
2023/08/25 11:19:39;;;;;;;;;24.25;22.50;;;;;33.55;25.85;99206.97;5090742;28;8838;-81
2023/08/25 11:22:10;;;;;;;;;23.00;22.50;;;;;33.72;25.75;99202.16;5095314;28;8833;-75
2023/08/25 11:24:39;;;;;;;;;22.50;22.50;;;;;33.93;25.23;99202.16;5095387;28;8864;-79
2023/08/25 11:27:10;;;;;;;;;20.75;20.75;;;;;34.01;24.75;99200.41;5095378;28;8874;-77
2023/08/25 11:29:44;;;;;;;;;21.25;20.50;;;;;34.17;24.34;99198.25;5095504;28;8869;-77
2023/08/25 11:32:14;;;;;;;;;19.50;19.50;;;;;34.37;24.39;99205.78;5101850;28;8854;-76
2023/08/25 11:34:47;;;;;;;;;20.50;20.25;;;;;34.53;24.14;99202.81;5064843;28;8900;-79
2023/08/25 11:37:16;;;;;;;;;20.50;20.50;;;;;34.58;23.79;99191.28;5077390;28;8872;-77
2023/08/25 11:39:45;;;;;;;;;21.25;18.75;;;;;34.73;24.35;99191.19;5095439;28;8877;-78